Padre Island — WDB4436 — position and weather

sailwx.info

Track history (hours):
 
Tides and Currents Weather Stations Pressure Air Temp Water Temp Dewpoint Dewpoint Depression Visibility Wind Speed Wind Dir Waves Ship Positions

Padre Island

Owner: Great Lakes Dredge & Dock Company, Oak Brook, IL. More information available from US FCC via Universal Licensing System and Coast Guard Vessel Documentation Center.

Last reported at 2017-Feb-21 11:33 UTC. Time now 2017-Feb-21 12:14 UTC.
Position N 36°50' W 076°16'.

Length 86 m; draft 19.6 m.

Type: Dredging. MMSI: 367525000.

Date/timePositionNaut miles runAvg speedWind from/ knotsBaromVisibWave heightAir tempDewpointWater temp
2017-Feb-21 11:33N 36°50' W 076°16'0 0.0
2017-Feb-21 10:33N 36°50' W 076°16'0 0.0
2017-Feb-21 09:34N 36°50' W 076°16'0 0.0
2017-Feb-21 08:33N 36°50' W 076°16'0 0.0
2017-Feb-21 07:34N 36°50' W 076°16'0 0.0
2017-Feb-21 06:33N 36°50' W 076°16'0 0.0
2017-Feb-21 05:33N 36°50' W 076°16'0 0.0
2017-Feb-21 04:33N 36°50' W 076°16'0 0.0
2017-Feb-21 03:34N 36°50' W 076°16'0 0.0
2017-Feb-21 02:33N 36°50' W 076°16'0 0.0
2017-Feb-21 01:34N 36°50' W 076°16'0 0.0
2017-Feb-21 00:33N 36°50' W 076°16'2 1.7
2017-Feb-20 23:33N 36°51' W 076°18'5 4.4
2017-Feb-20 22:32N 36°55' W 076°20'11 4.7
2017-Feb-20 20:10N 36°59' W 076°07'4 6.7
2017-Feb-20 19:31N 36°57' W 076°02'6 6.5
2017-Feb-20 18:33N 36°55' W 075°55'366 8.9
2017-Feb-19 01:33N 31°59' W 080°17'10 9.5
2017-Feb-19 00:33N 31°59' W 080°28'9 9.3
2017-Feb-18 23:33N 31°58' W 080°39'6 5.9
2017-Feb-18 22:33N 31°58' W 080°46'5 4.8
2017-Feb-18 21:33N 32°02' W 080°50'0 0.1
2017-Feb-18 20:33N 32°02' W 080°49'1 1.2
2017-Feb-18 19:33N 32°01' W 080°48'2 2.5
2017-Feb-18 18:33N 31°59' W 080°46'3 3.3
2017-Feb-18 17:33N 32°02' W 080°49'0 0.4
2017-Feb-18 16:33N 32°02' W 080°49'2 1.6
2017-Feb-18 15:33N 32°00' W 080°48'1 1.0
2017-Feb-18 14:33N 31°60' W 080°47'3 2.9
2017-Feb-18 13:33N 32°02' W 080°49'0 0.4
2017-Feb-18 12:33N 32°02' W 080°49'1 0.7
2017-Feb-18 11:33N 32°02' W 080°49'4 3.6
2017-Feb-18 10:33N 31°59' W 080°46'2 1.8
2017-Feb-18 09:33N 32°01' W 080°48'2 1.8
2017-Feb-18 08:33N 32°02' W 080°49'0 0.3
2017-Feb-18 07:33N 32°02' W 080°50'0 0.2
2017-Feb-18 06:33N 32°02' W 080°49'6 5.6
2017-Feb-18 05:33N 31°57' W 080°46'6 6.5
2017-Feb-18 04:33N 32°02' W 080°51'1 1.0
2017-Feb-18 03:33N 32°02' W 080°52'1 0.5
2017-Feb-18 02:33N 32°02' W 080°51'0 0.3
2017-Feb-18 01:33N 32°02' W 080°52'0 0.3
2017-Feb-18 00:33N 32°02' W 080°52'0 0.1
2017-Feb-17 23:33N 32°02' W 080°52'0 0.4
2017-Feb-17 22:33N 32°02' W 080°51'2 2.2
2017-Feb-17 21:33N 32°02' W 080°49'4 4.5
2017-Feb-17 20:33N 31°58' W 080°46'6 6.1
2017-Feb-17 19:33N 32°02' W 080°51'0 0.1
2017-Feb-17 18:34N 32°02' W 080°51'0 0.1
2017-Feb-17 17:33N 32°02' W 080°51'0 0.4
2017-Feb-17 16:33N 32°02' W 080°51'0 0.1
2017-Feb-17 15:33N 32°02' W 080°51'0 0.1
2017-Feb-17 14:33N 32°02' W 080°51'6 5.7
2017-Feb-17 13:33N 31°58' W 080°46'4 4.4
2017-Feb-17 12:33N 32°02' W 080°49'0 0.4
2017-Feb-17 11:33N 32°02' W 080°49'0 0.5
2017-Feb-17 10:33N 32°02' W 080°49'4 4.2
2017-Feb-17 09:33N 31°58' W 080°46'5 4.6
2017-Feb-17 08:33N 32°02' W 080°49'0 0.2
2017-Feb-17 07:33N 32°02' W 080°49'2 1.9
2017-Feb-17 06:33N 32°00' W 080°48'1 0.6
2017-Feb-17 05:33N 32°01' W 080°48'1 1.2
2017-Feb-17 04:33N 32°02' W 080°49'0 0.1
2017-Feb-17 03:33N 32°02' W 080°49'1 0.7
2017-Feb-17 02:33N 32°02' W 080°49'7 6.8
2017-Feb-17 01:33N 32°04' W 080°57'7 6.7
2017-Feb-17 00:33N 32°05' W 081°05'2 1.7
2017-Feb-16 23:33N 32°06' W 081°07'0 0.0
2017-Feb-16 22:33N 32°06' W 081°07'0 0.0
2017-Feb-16 21:30N 32°06' W 081°07'0 0.0
2017-Feb-16 20:18N 32°06' W 081°07'0 0.0
2017-Feb-16 19:24N 32°06' W 081°07'0 0.0
2017-Feb-16 18:30N 32°06' W 081°07'0 0.0
2017-Feb-16 17:30N 32°06' W 081°07'0 0.0
2017-Feb-16 16:30N 32°06' W 081°07'0 0.0
2017-Feb-16 15:30N 32°06' W 081°07'0 0.0
2017-Feb-16 14:33N 32°06' W 081°07'4 3.8
2017-Feb-16 13:33N 32°05' W 081°02'7 6.8
2017-Feb-16 12:33N 32°02' W 080°55'4 4.1
2017-Feb-16 11:33N 32°02' W 080°50'6 5.7
2017-Feb-16 10:33N 31°57' W 080°46'5 5.2
2017-Feb-16 09:33N 32°02' W 080°49'0 0.2
2017-Feb-16 08:33N 32°02' W 080°49'5 5.3
2017-Feb-16 07:33N 31°57' W 080°46'5 5.2
2017-Feb-16 06:33N 32°02' W 080°49'0 0.1
2017-Feb-16 05:33N 32°02' W 080°49'5 5.2
2017-Feb-16 04:33N 31°58' W 080°46'5 4.8
2017-Feb-16 03:33N 32°02' W 080°49'0 0.1
2017-Feb-16 02:33N 32°02' W 080°49'4 4.4
2017-Feb-16 01:33N 31°58' W 080°46'5 4.6
2017-Feb-16 00:33N 32°02' W 080°49'0 0.5
2017-Feb-15 23:33N 32°02' W 080°49'4 3.5
2017-Feb-15 22:33N 31°59' W 080°46'4 3.7
2017-Feb-15 21:33N 32°02' W 080°49'1 0.6
2017-Feb-15 20:33N 32°01' W 080°49'3 3.0
2017-Feb-15 19:30N 31°59' W 080°46'4 4.2
2017-Feb-15 18:33N 32°02' W 080°49'0 0.4
2017-Feb-15 17:33N 32°02' W 080°50'6 5.7
2017-Feb-15 16:33N 31°57' W 080°46'6 5.5
2017-Feb-15 15:33N 32°02' W 080°49'0 0.3
2017-Feb-15 14:33N 32°02' W 080°50'5 4.6
2017-Feb-15 13:33N 31°59' W 080°46'4 3.8
2017-Feb-15 12:33N 32°02' W 080°49'1 0.6
2017-Feb-15 11:33N 32°02' W 080°49'2 2.3
2017-Feb-15 10:33N 32°00' W 080°48'0 0.3
2017-Feb-15 09:33N 32°00' W 080°48'1 1.3
2017-Feb-15 08:33N 32°01' W 080°49'2 2.0
2017-Feb-15 07:33N 31°60' W 080°47'1 1.2
2017-Feb-15 06:33N 32°01' W 080°48'1 1.0
2017-Feb-15 05:33N 32°02' W 080°49'1 1.1
2017-Feb-15 04:33N 32°01' W 080°48'2 1.9
2017-Feb-15 03:33N 31°59' W 080°47'3 3.5
2017-Feb-15 02:33N 32°02' W 080°49'4 3.7
2017-Feb-15 01:33N 31°59' W 080°47'3 3.0
2017-Feb-15 00:33N 32°01' W 080°49'0 0.4
2017-Feb-14 23:33N 32°02' W 080°49'5 5.2
2017-Feb-14 22:33N 31°57' W 080°46'5 5.4
2017-Feb-14 21:33N 32°02' W 080°49'0 0.1
2017-Feb-14 20:33N 32°02' W 080°49'5 4.5
2017-Feb-14 19:33N 31°58' W 080°46'5 4.6
2017-Feb-14 18:33N 32°02' W 080°49'0 0.1
2017-Feb-14 17:33N 32°02' W 080°49'0 0.3
2017-Feb-14 16:34N 32°02' W 080°50'5 5.1
2017-Feb-14 15:33N 31°58' W 080°46'5 4.7
2017-Feb-14 14:34N 32°02' W 080°49'0 0.2
2017-Feb-14 13:34N 32°02' W 080°49'3 3.4
2017-Feb-14 12:34N 31°59' W 080°46'4 3.8
2017-Feb-14 11:34N 32°02' W 080°49'3 3.0
2017-Feb-14 10:34N 31°60' W 080°47'2 1.8
2017-Feb-14 09:33N 32°01' W 080°48'1 1.3
2017-Feb-14 08:33N 32°02' W 080°49'4 4.1
2017-Feb-14 07:34N 31°59' W 080°46'3 3.4
2017-Feb-14 06:33N 32°02' W 080°49'1 0.7
2017-Feb-14 05:34N 32°02' W 080°50'5 4.5
2017-Feb-14 04:34N 31°59' W 080°46'4 3.7
2017-Feb-14 03:33N 32°02' W 080°49'0 0.2
2017-Feb-14 02:34N 32°02' W 080°49'5 4.5
2017-Feb-14 01:33N 31°58' W 080°46'5 5.0
2017-Feb-14 00:34N 32°02' W 080°49'1 0.7
2017-Feb-13 23:33N 32°02' W 080°49'4 4.1
2017-Feb-13 22:33N 31°58' W 080°46'4 4.5
2017-Feb-13 21:34N 32°02' W 080°49'2 1.7
2017-Feb-13 20:34N 32°01' W 080°48'1 1.4
2017-Feb-13 19:34N 31°60' W 080°47'2 2.5
2017-Feb-13 18:34N 32°01' W 080°49'1 0.9
2017-Feb-13 17:33N 32°02' W 080°50'3 2.9
2017-Feb-13 16:34N 31°60' W 080°47'1 0.6
2017-Feb-13 15:34N 32°00' W 080°48'2 2.3
2017-Feb-13 14:34N 32°02' W 080°49'5 4.7
2017-Feb-13 13:34N 31°58' W 080°46'4 4.4
2017-Feb-13 12:33N 32°02' W 080°49'0 0.3
2017-Feb-13 11:33N 32°02' W 080°50'5 5.4
2017-Feb-13 10:34N 31°57' W 080°46'5 5.4
2017-Feb-13 09:33N 32°02' W 080°50'3 3.4
2017-Feb-13 08:34N 31°60' W 080°47'2 1.8
2017-Feb-13 07:34N 32°01' W 080°48'1 1.4
2017-Feb-13 06:34N 32°02' W 080°49'4 4.3
2017-Feb-13 05:34N 31°59' W 080°46'4 3.7
2017-Feb-13 04:34N 32°02' W 080°49'0 0.4
2017-Feb-13 03:34N 32°02' W 080°49'2 2.4
2017-Feb-13 02:34N 31°60' W 080°47'1 1.0
2017-Feb-13 01:34N 32°01' W 080°48'2 1.5
2017-Feb-13 00:34N 32°02' W 080°49'5 5.0
2017-Feb-12 23:34N 31°58' W 080°46'5 4.8
2017-Feb-12 22:33N 32°02' W 080°49'1 0.8
2017-Feb-12 21:33N 32°01' W 080°48'2 2.2
2017-Feb-12 20:34N 31°59' W 080°47'3 3.0
2017-Feb-12 19:34N 32°02' W 080°49'5 4.9
2017-Feb-12 18:34N 31°58' W 080°46'5 4.7
2017-Feb-12 17:33N 32°02' W 080°49'0 0.1
2017-Feb-12 16:33N 32°02' W 080°49'0 0.1
2017-Feb-12 15:34N 32°01' W 080°49'3 3.3
2017-Feb-12 14:33N 31°59' W 080°46'3 2.8
2017-Feb-12 13:34N 32°01' W 080°48'1 0.5
2017-Feb-12 12:33N 32°02' W 080°49'0 0.0
2017-Feb-12 11:33N 32°02' W 080°49'0 0.4
2017-Feb-12 10:34N 32°01' W 080°49'3 2.6
2017-Feb-12 09:34N 31°59' W 080°46'3 3.1
2017-Feb-12 08:33N 32°02' W 080°49'0 0.0
2017-Feb-12 07:34N 32°02' W 080°49'5 4.6
2017-Feb-12 06:31N 31°58' W 080°46'5 5.5
2017-Feb-12 05:34N 32°02' W 080°49'0 0.1
2017-Feb-12 04:33N 32°02' W 080°49'0 0.1
2017-Feb-12 03:33N 32°02' W 080°49'5 4.6
2017-Feb-12 02:33N 31°58' W 080°46'4 3.8
2017-Feb-12 01:34N 32°01' W 080°49'1 0.9
2017-Feb-12 00:34N 32°02' W 080°49'0 0.1
2017-Feb-11 23:33N 32°02' W 080°49'2 1.7
2017-Feb-11 22:33N 32°01' W 080°48'4 3.9
2017-Feb-11 21:33N 31°57' W 080°46'4 4.1
2017-Feb-11 20:33N 32°01' W 080°48'1 1.2
2017-Feb-11 19:34N 32°02' W 080°49'0 0.2
2017-Feb-11 18:33N 32°02' W 080°49'5 4.6
2017-Feb-11 17:32N 31°58' W 080°46'5 5.2
2017-Feb-11 16:34N 32°02' W 080°49'0 0.0
2017-Feb-11 15:33N 32°02' W 080°49'0 0.3
2017-Feb-11 14:33N 32°02' W 080°49'5 5.0
2017-Feb-11 13:34N 31°57' W 080°46'5 4.8
2017-Feb-11 12:33N 32°02' W 080°49'0 0.1
2017-Feb-11 11:34N 32°02' W 080°49'  
Track history (hours):
 
Tides and Currents Weather Stations Pressure Air Temp Water Temp Dewpoint Dewpoint Depression Visibility Wind Speed Wind Dir Waves Ship Positions

Padre Island

Owner: Great Lakes Dredge & Dock Company, Oak Brook, IL. More information available from US FCC via Universal Licensing System and Coast Guard Vessel Documentation Center.

Last reported at 2017-Feb-21 11:33 UTC. Time now 2017-Feb-21 12:14 UTC.
Position N 36°50' W 076°16'.

Length 86 m; draft 19.6 m.

Type: Dredging. MMSI: 367525000.

Date/timePositionNaut miles runAvg speedWind from/ knotsBaromVisibWave heightAir tempDewpointWater temp
2017-Feb-21 11:33N 36°50' W 076°16'0 0.0
2017-Feb-21 10:33N 36°50' W 076°16'0 0.0
2017-Feb-21 09:34N 36°50' W 076°16'0 0.0
2017-Feb-21 08:33N 36°50' W 076°16'0 0.0
2017-Feb-21 07:34N 36°50' W 076°16'0 0.0
2017-Feb-21 06:33N 36°50' W 076°16'0 0.0
2017-Feb-21 05:33N 36°50' W 076°16'0 0.0
2017-Feb-21 04:33N 36°50' W 076°16'0 0.0
2017-Feb-21 03:34N 36°50' W 076°16'0 0.0
2017-Feb-21 02:33N 36°50' W 076°16'0 0.0
2017-Feb-21 01:34N 36°50' W 076°16'0 0.0
2017-Feb-21 00:33N 36°50' W 076°16'2 1.7
2017-Feb-20 23:33N 36°51' W 076°18'5 4.4
2017-Feb-20 22:32N 36°55' W 076°20'11 4.7
2017-Feb-20 20:10N 36°59' W 076°07'4 6.7
2017-Feb-20 19:31N 36°57' W 076°02'6 6.5
2017-Feb-20 18:33N 36°55' W 075°55'366 8.9
2017-Feb-19 01:33N 31°59' W 080°17'10 9.5
2017-Feb-19 00:33N 31°59' W 080°28'9 9.3
2017-Feb-18 23:33N 31°58' W 080°39'6 5.9
2017-Feb-18 22:33N 31°58' W 080°46'5 4.8
2017-Feb-18 21:33N 32°02' W 080°50'0 0.1
2017-Feb-18 20:33N 32°02' W 080°49'1 1.2
2017-Feb-18 19:33N 32°01' W 080°48'2 2.5
2017-Feb-18 18:33N 31°59' W 080°46'3 3.3
2017-Feb-18 17:33N 32°02' W 080°49'0 0.4
2017-Feb-18 16:33N 32°02' W 080°49'2 1.6
2017-Feb-18 15:33N 32°00' W 080°48'1 1.0
2017-Feb-18 14:33N 31°60' W 080°47'3 2.9
2017-Feb-18 13:33N 32°02' W 080°49'0 0.4
2017-Feb-18 12:33N 32°02' W 080°49'1 0.7
2017-Feb-18 11:33N 32°02' W 080°49'4 3.6
2017-Feb-18 10:33N 31°59' W 080°46'2 1.8
2017-Feb-18 09:33N 32°01' W 080°48'2 1.8
2017-Feb-18 08:33N 32°02' W 080°49'0 0.3
2017-Feb-18 07:33N 32°02' W 080°50'0 0.2
2017-Feb-18 06:33N 32°02' W 080°49'6 5.6
2017-Feb-18 05:33N 31°57' W 080°46'6 6.5
2017-Feb-18 04:33N 32°02' W 080°51'1 1.0
2017-Feb-18 03:33N 32°02' W 080°52'1 0.5
2017-Feb-18 02:33N 32°02' W 080°51'0 0.3
2017-Feb-18 01:33N 32°02' W 080°52'0 0.3
2017-Feb-18 00:33N 32°02' W 080°52'0 0.1
2017-Feb-17 23:33N 32°02' W 080°52'0 0.4
2017-Feb-17 22:33N 32°02' W 080°51'2 2.2
2017-Feb-17 21:33N 32°02' W 080°49'4 4.5
2017-Feb-17 20:33N 31°58' W 080°46'6 6.1
2017-Feb-17 19:33N 32°02' W 080°51'0 0.1
2017-Feb-17 18:34N 32°02' W 080°51'0 0.1
2017-Feb-17 17:33N 32°02' W 080°51'0 0.4
2017-Feb-17 16:33N 32°02' W 080°51'0 0.1
2017-Feb-17 15:33N 32°02' W 080°51'0 0.1
2017-Feb-17 14:33N 32°02' W 080°51'6 5.7
2017-Feb-17 13:33N 31°58' W 080°46'4 4.4
2017-Feb-17 12:33N 32°02' W 080°49'0 0.4
2017-Feb-17 11:33N 32°02' W 080°49'0 0.5
2017-Feb-17 10:33N 32°02' W 080°49'4 4.2
2017-Feb-17 09:33N 31°58' W 080°46'5 4.6
2017-Feb-17 08:33N 32°02' W 080°49'0 0.2
2017-Feb-17 07:33N 32°02' W 080°49'2 1.9
2017-Feb-17 06:33N 32°00' W 080°48'1 0.6
2017-Feb-17 05:33N 32°01' W 080°48'1 1.2
2017-Feb-17 04:33N 32°02' W 080°49'0 0.1
2017-Feb-17 03:33N 32°02' W 080°49'1 0.7
2017-Feb-17 02:33N 32°02' W 080°49'7 6.8
2017-Feb-17 01:33N 32°04' W 080°57'7 6.7
2017-Feb-17 00:33N 32°05' W 081°05'2 1.7
2017-Feb-16 23:33N 32°06' W 081°07'0 0.0
2017-Feb-16 22:33N 32°06' W 081°07'0 0.0
2017-Feb-16 21:30N 32°06' W 081°07'0 0.0
2017-Feb-16 20:18N 32°06' W 081°07'0 0.0
2017-Feb-16 19:24N 32°06' W 081°07'0 0.0
2017-Feb-16 18:30N 32°06' W 081°07'0 0.0
2017-Feb-16 17:30N 32°06' W 081°07'0 0.0
2017-Feb-16 16:30N 32°06' W 081°07'0 0.0
2017-Feb-16 15:30N 32°06' W 081°07'0 0.0
2017-Feb-16 14:33N 32°06' W 081°07'4 3.8
2017-Feb-16 13:33N 32°05' W 081°02'7 6.8
2017-Feb-16 12:33N 32°02' W 080°55'4 4.1
2017-Feb-16 11:33N 32°02' W 080°50'6 5.7
2017-Feb-16 10:33N 31°57' W 080°46'5 5.2
2017-Feb-16 09:33N 32°02' W 080°49'0 0.2
2017-Feb-16 08:33N 32°02' W 080°49'5 5.3
2017-Feb-16 07:33N 31°57' W 080°46'5 5.2
2017-Feb-16 06:33N 32°02' W 080°49'0 0.1
2017-Feb-16 05:33N 32°02' W 080°49'5 5.2
2017-Feb-16 04:33N 31°58' W 080°46'5 4.8
2017-Feb-16 03:33N 32°02' W 080°49'0 0.1
2017-Feb-16 02:33N 32°02' W 080°49'4 4.4
2017-Feb-16 01:33N 31°58' W 080°46'5 4.6
2017-Feb-16 00:33N 32°02' W 080°49'0 0.5
2017-Feb-15 23:33N 32°02' W 080°49'4 3.5
2017-Feb-15 22:33N 31°59' W 080°46'4 3.7
2017-Feb-15 21:33N 32°02' W 080°49'1 0.6
2017-Feb-15 20:33N 32°01' W 080°49'3 3.0
2017-Feb-15 19:30N 31°59' W 080°46'4 4.2
2017-Feb-15 18:33N 32°02' W 080°49'0 0.4
2017-Feb-15 17:33N 32°02' W 080°50'6 5.7
2017-Feb-15 16:33N 31°57' W 080°46'6 5.5
2017-Feb-15 15:33N 32°02' W 080°49'0 0.3
2017-Feb-15 14:33N 32°02' W 080°50'5 4.6
2017-Feb-15 13:33N 31°59' W 080°46'4 3.8
2017-Feb-15 12:33N 32°02' W 080°49'1 0.6
2017-Feb-15 11:33N 32°02' W 080°49'2 2.3
2017-Feb-15 10:33N 32°00' W 080°48'0 0.3
2017-Feb-15 09:33N 32°00' W 080°48'1 1.3
2017-Feb-15 08:33N 32°01' W 080°49'2 2.0
2017-Feb-15 07:33N 31°60' W 080°47'1 1.2
2017-Feb-15 06:33N 32°01' W 080°48'1 1.0
2017-Feb-15 05:33N 32°02' W 080°49'1 1.1
2017-Feb-15 04:33N 32°01' W 080°48'2 1.9
2017-Feb-15 03:33N 31°59' W 080°47'3 3.5
2017-Feb-15 02:33N 32°02' W 080°49'4 3.7
2017-Feb-15 01:33N 31°59' W 080°47'3 3.0
2017-Feb-15 00:33N 32°01' W 080°49'0 0.4
2017-Feb-14 23:33N 32°02' W 080°49'5 5.2
2017-Feb-14 22:33N 31°57' W 080°46'5 5.4
2017-Feb-14 21:33N 32°02' W 080°49'0 0.1
2017-Feb-14 20:33N 32°02' W 080°49'5 4.5
2017-Feb-14 19:33N 31°58' W 080°46'5 4.6
2017-Feb-14 18:33N 32°02' W 080°49'0 0.1
2017-Feb-14 17:33N 32°02' W 080°49'0 0.3
2017-Feb-14 16:34N 32°02' W 080°50'5 5.1
2017-Feb-14 15:33N 31°58' W 080°46'5 4.7
2017-Feb-14 14:34N 32°02' W 080°49'0 0.2
2017-Feb-14 13:34N 32°02' W 080°49'3 3.4
2017-Feb-14 12:34N 31°59' W 080°46'4 3.8
2017-Feb-14 11:34N 32°02' W 080°49'3 3.0
2017-Feb-14 10:34N 31°60' W 080°47'2 1.8
2017-Feb-14 09:33N 32°01' W 080°48'1 1.3
2017-Feb-14 08:33N 32°02' W 080°49'4 4.1
2017-Feb-14 07:34N 31°59' W 080°46'3 3.4
2017-Feb-14 06:33N 32°02' W 080°49'1 0.7
2017-Feb-14 05:34N 32°02' W 080°50'5 4.5
2017-Feb-14 04:34N 31°59' W 080°46'4 3.7
2017-Feb-14 03:33N 32°02' W 080°49'0 0.2
2017-Feb-14 02:34N 32°02' W 080°49'5 4.5
2017-Feb-14 01:33N 31°58' W 080°46'5 5.0
2017-Feb-14 00:34N 32°02' W 080°49'1 0.7
2017-Feb-13 23:33N 32°02' W 080°49'4 4.1
2017-Feb-13 22:33N 31°58' W 080°46'4 4.5
2017-Feb-13 21:34N 32°02' W 080°49'2 1.7
2017-Feb-13 20:34N 32°01' W 080°48'1 1.4
2017-Feb-13 19:34N 31°60' W 080°47'2 2.5
2017-Feb-13 18:34N 32°01' W 080°49'1 0.9
2017-Feb-13 17:33N 32°02' W 080°50'3 2.9
2017-Feb-13 16:34N 31°60' W 080°47'1 0.6
2017-Feb-13 15:34N 32°00' W 080°48'2 2.3
2017-Feb-13 14:34N 32°02' W 080°49'5 4.7
2017-Feb-13 13:34N 31°58' W 080°46'4 4.4
2017-Feb-13 12:33N 32°02' W 080°49'0 0.3
2017-Feb-13 11:33N 32°02' W 080°50'5 5.4
2017-Feb-13 10:34N 31°57' W 080°46'5 5.4
2017-Feb-13 09:33N 32°02' W 080°50'3 3.4
2017-Feb-13 08:34N 31°60' W 080°47'2 1.8
2017-Feb-13 07:34N 32°01' W 080°48'1 1.4
2017-Feb-13 06:34N 32°02' W 080°49'4 4.3
2017-Feb-13 05:34N 31°59' W 080°46'4 3.7
2017-Feb-13 04:34N 32°02' W 080°49'0 0.4
2017-Feb-13 03:34N 32°02' W 080°49'2 2.4
2017-Feb-13 02:34N 31°60' W 080°47'1 1.0
2017-Feb-13 01:34N 32°01' W 080°48'2 1.5
2017-Feb-13 00:34N 32°02' W 080°49'5 5.0
2017-Feb-12 23:34N 31°58' W 080°46'5 4.8
2017-Feb-12 22:33N 32°02' W 080°49'1 0.8
2017-Feb-12 21:33N 32°01' W 080°48'2 2.2
2017-Feb-12 20:34N 31°59' W 080°47'3 3.0
2017-Feb-12 19:34N 32°02' W 080°49'5 4.9
2017-Feb-12 18:34N 31°58' W 080°46'5 4.7
2017-Feb-12 17:33N 32°02' W 080°49'0 0.1
2017-Feb-12 16:33N 32°02' W 080°49'0 0.1
2017-Feb-12 15:34N 32°01' W 080°49'3 3.3
2017-Feb-12 14:33N 31°59' W 080°46'3 2.8
2017-Feb-12 13:34N 32°01' W 080°48'1 0.5
2017-Feb-12 12:33N 32°02' W 080°49'0 0.0
2017-Feb-12 11:33N 32°02' W 080°49'0 0.4
2017-Feb-12 10:34N 32°01' W 080°49'3 2.6
2017-Feb-12 09:34N 31°59' W 080°46'3 3.1
2017-Feb-12 08:33N 32°02' W 080°49'0 0.0
2017-Feb-12 07:34N 32°02' W 080°49'5 4.6
2017-Feb-12 06:31N 31°58' W 080°46'5 5.5
2017-Feb-12 05:34N 32°02' W 080°49'0 0.1
2017-Feb-12 04:33N 32°02' W 080°49'0 0.1
2017-Feb-12 03:33N 32°02' W 080°49'5 4.6
2017-Feb-12 02:33N 31°58' W 080°46'4 3.8
2017-Feb-12 01:34N 32°01' W 080°49'1 0.9
2017-Feb-12 00:34N 32°02' W 080°49'0 0.1
2017-Feb-11 23:33N 32°02' W 080°49'2 1.7
2017-Feb-11 22:33N 32°01' W 080°48'4 3.9
2017-Feb-11 21:33N 31°57' W 080°46'4 4.1
2017-Feb-11 20:33N 32°01' W 080°48'1 1.2
2017-Feb-11 19:34N 32°02' W 080°49'0 0.2
2017-Feb-11 18:33N 32°02' W 080°49'5 4.6
2017-Feb-11 17:32N 31°58' W 080°46'5 5.2
2017-Feb-11 16:34N 32°02' W 080°49'0 0.0
2017-Feb-11 15:33N 32°02' W 080°49'0 0.3
2017-Feb-11 14:33N 32°02' W 080°49'5 5.0
2017-Feb-11 13:34N 31°57' W 080°46'5 4.8
2017-Feb-11 12:33N 32°02' W 080°49'0 0.1
2017-Feb-11 11:34N 32°02' W 080°49'  

Dump ship's entire track history